sensor_id;sensor_type;location;lat;lon;timestamp;P1;durP1;ratioP1;P2;durP2;ratioP2
8060;SDS011;4073;42.626;25.386;2023-03-26T00:00:45;9.47;;;7.23;;
8060;SDS011;4073;42.626;25.386;2023-03-26T00:03:13;7.10;;;6.47;;
8060;SDS011;4073;42.626;25.386;2023-03-26T00:05:40;7.63;;;6.93;;
8060;SDS011;4073;42.626;25.386;2023-03-26T00:08:06;8.70;;;7.80;;
8060;SDS011;4073;42.626;25.386;2023-03-26T00:10:36;7.53;;;6.83;;
8060;SDS011;4073;42.626;25.386;2023-03-26T00:13:06;8.63;;;7.83;;
8060;SDS011;4073;42.626;25.386;2023-03-26T00:15:32;9.00;;;7.80;;
8060;SDS011;4073;42.626;25.386;2023-03-26T00:18:00;8.57;;;7.73;;
8060;SDS011;4073;42.626;25.386;2023-03-26T00:20:26;8.20;;;7.50;;
8060;SDS011;4073;42.626;25.386;2023-03-26T00:22:53;9.00;;;8.10;;
8060;SDS011;4073;42.626;25.386;2023-03-26T00:25:19;9.73;;;7.60;;
8060;SDS011;4073;42.626;25.386;2023-03-26T00:27:47;8.40;;;7.60;;
8060;SDS011;4073;42.626;25.386;2023-03-26T00:30:14;8.80;;;8.00;;
8060;SDS011;4073;42.626;25.386;2023-03-26T00:32:40;10.47;;;9.37;;
8060;SDS011;4073;42.626;25.386;2023-03-26T00:35:06;10.47;;;9.37;;
8060;SDS011;4073;42.626;25.386;2023-03-26T00:37:32;12.60;;;9.47;;
8060;SDS011;4073;42.626;25.386;2023-03-26T00:39:58;10.20;;;9.17;;
8060;SDS011;4073;42.626;25.386;2023-03-26T00:42:28;9.80;;;8.90;;
8060;SDS011;4073;42.626;25.386;2023-03-26T00:44:54;9.23;;;8.33;;
8060;SDS011;4073;42.626;25.386;2023-03-26T00:47:22;11.67;;;9.83;;
8060;SDS011;4073;42.626;25.386;2023-03-26T00:49:56;11.80;;;10.63;;
8060;SDS011;4073;42.626;25.386;2023-03-26T00:52:22;10.57;;;9.67;;
8060;SDS011;4073;42.626;25.386;2023-03-26T00:54:49;14.30;;;10.07;;
8060;SDS011;4073;42.626;25.386;2023-03-26T00:57:16;10.10;;;9.20;;
8060;SDS011;4073;42.626;25.386;2023-03-26T00:59:44;9.73;;;8.93;;
8060;SDS011;4073;42.626;25.386;2023-03-26T01:02:11;10.53;;;9.50;;
8060;SDS011;4073;42.626;25.386;2023-03-26T01:04:44;9.37;;;8.47;;
8060;SDS011;4073;42.626;25.386;2023-03-26T01:07:19;8.40;;;7.60;;
8060;SDS011;4073;42.626;25.386;2023-03-26T01:09:53;6.70;;;6.10;;
8060;SDS011;4073;42.626;25.386;2023-03-26T01:12:22;6.70;;;5.83;;
8060;SDS011;4073;42.626;25.386;2023-03-26T01:14:50;6.40;;;5.90;;
8060;SDS011;4073;42.626;25.386;2023-03-26T01:17:19;6.07;;;5.47;;
8060;SDS011;4073;42.626;25.386;2023-03-26T01:22:22;6.23;;;5.73;;
8060;SDS011;4073;42.626;25.386;2023-03-26T01:24:50;7.33;;;6.47;;
8060;SDS011;4073;42.626;25.386;2023-03-26T01:29:55;6.63;;;6.00;;
8060;SDS011;4073;42.626;25.386;2023-03-26T01:40:31;5.23;;;4.27;;
8060;SDS011;4073;42.626;25.386;2023-03-26T01:46:00;3.57;;;3.27;;
8060;SDS011;4073;42.626;25.386;2023-03-26T01:48:36;3.20;;;2.90;;
8060;SDS011;4073;42.626;25.386;2023-03-26T01:51:05;2.60;;;2.40;;
8060;SDS011;4073;42.626;25.386;2023-03-26T01:53:32;2.80;;;2.60;;
8060;SDS011;4073;42.626;25.386;2023-03-26T02:01:25;2.90;;;2.70;;
8060;SDS011;4073;42.626;25.386;2023-03-26T02:06:45;2.60;;;2.40;;
8060;SDS011;4073;42.626;25.386;2023-03-26T02:09:41;2.70;;;2.50;;
8060;SDS011;4073;42.626;25.386;2023-03-26T02:12:09;3.23;;;2.40;;
8060;SDS011;4073;42.626;25.386;2023-03-26T02:14:37;2.77;;;2.43;;
8060;SDS011;4073;42.626;25.386;2023-03-26T02:17:03;3.10;;;2.50;;
8060;SDS011;4073;42.626;25.386;2023-03-26T02:19:29;2.63;;;2.43;;
8060;SDS011;4073;42.626;25.386;2023-03-26T02:21:54;4.40;;;2.40;;
8060;SDS011;4073;42.626;25.386;2023-03-26T02:24:24;2.97;;;2.70;;
8060;SDS011;4073;42.626;25.386;2023-03-26T02:26:49;3.10;;;2.80;;
8060;SDS011;4073;42.626;25.386;2023-03-26T02:29:15;3.80;;;3.13;;
8060;SDS011;4073;42.626;25.386;2023-03-26T02:31:44;3.97;;;3.63;;
8060;SDS011;4073;42.626;25.386;2023-03-26T02:34:12;4.77;;;4.07;;
8060;SDS011;4073;42.626;25.386;2023-03-26T02:36:38;5.17;;;4.00;;
8060;SDS011;4073;42.626;25.386;2023-03-26T02:39:06;4.60;;;4.20;;
8060;SDS011;4073;42.626;25.386;2023-03-26T02:41:36;5.23;;;4.73;;
8060;SDS011;4073;42.626;25.386;2023-03-26T02:44:02;4.70;;;4.30;;
8060;SDS011;4073;42.626;25.386;2023-03-26T02:46:30;5.00;;;4.60;;
8060;SDS011;4073;42.626;25.386;2023-03-26T02:48:56;4.90;;;4.37;;
8060;SDS011;4073;42.626;25.386;2023-03-26T02:51:22;4.60;;;4.20;;
8060;SDS011;4073;42.626;25.386;2023-03-26T02:53:49;5.03;;;4.53;;
8060;SDS011;4073;42.626;25.386;2023-03-26T02:56:17;5.53;;;4.40;;
8060;SDS011;4073;42.626;25.386;2023-03-26T02:58:43;3.97;;;3.67;;
8060;SDS011;4073;42.626;25.386;2023-03-26T03:01:08;2.87;;;2.57;;
8060;SDS011;4073;42.626;25.386;2023-03-26T03:03:34;3.03;;;2.57;;
8060;SDS011;4073;42.626;25.386;2023-03-26T03:06:00;2.43;;;2.13;;
8060;SDS011;4073;42.626;25.386;2023-03-26T03:08:26;2.10;;;1.90;;
8060;SDS011;4073;42.626;25.386;2023-03-26T03:10:58;1.87;;;1.57;;
8060;SDS011;4073;42.626;25.386;2023-03-26T03:13:31;1.53;;;1.43;;
8060;SDS011;4073;42.626;25.386;2023-03-26T03:15:57;1.40;;;1.30;;
8060;SDS011;4073;42.626;25.386;2023-03-26T03:18:22;1.60;;;1.30;;
8060;SDS011;4073;42.626;25.386;2023-03-26T03:20:48;1.40;;;1.30;;
8060;SDS011;4073;42.626;25.386;2023-03-26T03:23:14;1.57;;;1.30;;
8060;SDS011;4073;42.626;25.386;2023-03-26T03:25:40;1.43;;;1.33;;
8060;SDS011;4073;42.626;25.386;2023-03-26T03:28:05;1.70;;;1.20;;
8060;SDS011;4073;42.626;25.386;2023-03-26T03:30:31;3.90;;;1.20;;
8060;SDS011;4073;42.626;25.386;2023-03-26T03:32:57;1.27;;;1.17;;
8060;SDS011;4073;42.626;25.386;2023-03-26T03:35:24;1.10;;;1.00;;
8060;SDS011;4073;42.626;25.386;2023-03-26T03:37:51;1.10;;;1.00;;
8060;SDS011;4073;42.626;25.386;2023-03-26T03:40:17;1.10;;;1.00;;
8060;SDS011;4073;42.626;25.386;2023-03-26T03:42:43;1.40;;;0.90;;
8060;SDS011;4073;42.626;25.386;2023-03-26T03:45:10;1.10;;;1.00;;
8060;SDS011;4073;42.626;25.386;2023-03-26T03:47:36;1.40;;;1.30;;
8060;SDS011;4073;42.626;25.386;2023-03-26T03:50:02;1.10;;;1.00;;
8060;SDS011;4073;42.626;25.386;2023-03-26T03:52:28;1.07;;;0.97;;
8060;SDS011;4073;42.626;25.386;2023-03-26T03:54:54;1.20;;;1.10;;
8060;SDS011;4073;42.626;25.386;2023-03-26T03:57:21;1.13;;;1.03;;
8060;SDS011;4073;42.626;25.386;2023-03-26T03:59:47;1.00;;;0.90;;
8060;SDS011;4073;42.626;25.386;2023-03-26T04:02:13;1.53;;;1.10;;
8060;SDS011;4073;42.626;25.386;2023-03-26T04:04:45;1.23;;;1.13;;
8060;SDS011;4073;42.626;25.386;2023-03-26T04:07:14;1.57;;;1.47;;
8060;SDS011;4073;42.626;25.386;2023-03-26T04:09:39;1.63;;;1.53;;
8060;SDS011;4073;42.626;25.386;2023-03-26T04:12:05;1.50;;;1.33;;
8060;SDS011;4073;42.626;25.386;2023-03-26T04:14:30;2.00;;;1.83;;
8060;SDS011;4073;42.626;25.386;2023-03-26T04:16:56;2.70;;;2.20;;
8060;SDS011;4073;42.626;25.386;2023-03-26T04:19:21;2.27;;;2.07;;
8060;SDS011;4073;42.626;25.386;2023-03-26T04:21:47;1.90;;;1.80;;
8060;SDS011;4073;42.626;25.386;2023-03-26T04:24:13;2.37;;;2.17;;
8060;SDS011;4073;42.626;25.386;2023-03-26T04:26:38;2.47;;;2.27;;
8060;SDS011;4073;42.626;25.386;2023-03-26T04:29:05;2.13;;;1.83;;
8060;SDS011;4073;42.626;25.386;2023-03-26T04:31:35;2.77;;;2.00;;
8060;SDS011;4073;42.626;25.386;2023-03-26T04:34:08;3.00;;;2.00;;
8060;SDS011;4073;42.626;25.386;2023-03-26T04:36:42;2.20;;;2.00;;
8060;SDS011;4073;42.626;25.386;2023-03-26T04:39:11;2.77;;;2.57;;
8060;SDS011;4073;42.626;25.386;2023-03-26T04:41:37;3.03;;;2.20;;
8060;SDS011;4073;42.626;25.386;2023-03-26T04:44:03;2.27;;;1.87;;
8060;SDS011;4073;42.626;25.386;2023-03-26T04:46:28;1.83;;;1.70;;
8060;SDS011;4073;42.626;25.386;2023-03-26T04:48:57;1.97;;;1.87;;
8060;SDS011;4073;42.626;25.386;2023-03-26T04:51:24;1.87;;;1.70;;
8060;SDS011;4073;42.626;25.386;2023-03-26T04:53:53;2.00;;;1.50;;
8060;SDS011;4073;42.626;25.386;2023-03-26T04:56:31;3.20;;;1.60;;
8060;SDS011;4073;42.626;25.386;2023-03-26T04:59:03;1.67;;;1.57;;
8060;SDS011;4073;42.626;25.386;2023-03-26T05:01:30;2.37;;;1.53;;
8060;SDS011;4073;42.626;25.386;2023-03-26T05:03:56;2.30;;;1.80;;
8060;SDS011;4073;42.626;25.386;2023-03-26T05:06:25;1.43;;;1.33;;
8060;SDS011;4073;42.626;25.386;2023-03-26T05:08:53;1.37;;;1.20;;
8060;SDS011;4073;42.626;25.386;2023-03-26T05:11:19;2.37;;;1.27;;
8060;SDS011;4073;42.626;25.386;2023-03-26T05:13:45;1.27;;;1.10;;
8060;SDS011;4073;42.626;25.386;2023-03-26T05:16:11;2.27;;;1.70;;
8060;SDS011;4073;42.626;25.386;2023-03-26T05:18:36;1.17;;;1.07;;
8060;SDS011;4073;42.626;25.386;2023-03-26T05:21:02;2.80;;;1.47;;
8060;SDS011;4073;42.626;25.386;2023-03-26T05:23:28;1.80;;;1.20;;
8060;SDS011;4073;42.626;25.386;2023-03-26T05:25:54;1.10;;;1.00;;
8060;SDS011;4073;42.626;25.386;2023-03-26T05:28:20;1.80;;;1.30;;
8060;SDS011;4073;42.626;25.386;2023-03-26T05:30:48;3.00;;;1.27;;
8060;SDS011;4073;42.626;25.386;2023-03-26T05:33:15;4.40;;;1.70;;
8060;SDS011;4073;42.626;25.386;2023-03-26T05:35:41;3.37;;;1.70;;
8060;SDS011;4073;42.626;25.386;2023-03-26T05:38:07;1.77;;;1.20;;
8060;SDS011;4073;42.626;25.386;2023-03-26T05:40:33;1.70;;;1.40;;
8060;SDS011;4073;42.626;25.386;2023-03-26T05:42:58;2.90;;;1.40;;
8060;SDS011;4073;42.626;25.386;2023-03-26T05:45:23;1.67;;;1.33;;
8060;SDS011;4073;42.626;25.386;2023-03-26T05:47:49;1.80;;;1.17;;
8060;SDS011;4073;42.626;25.386;2023-03-26T05:50:15;2.17;;;1.60;;
8060;SDS011;4073;42.626;25.386;2023-03-26T05:52:40;2.00;;;1.40;;
8060;SDS011;4073;42.626;25.386;2023-03-26T05:55:06;1.97;;;1.47;;
8060;SDS011;4073;42.626;25.386;2023-03-26T05:57:32;2.50;;;2.30;;
8060;SDS011;4073;42.626;25.386;2023-03-26T05:59:59;3.07;;;1.97;;
8060;SDS011;4073;42.626;25.386;2023-03-26T06:02:25;2.47;;;1.90;;
8060;SDS011;4073;42.626;25.386;2023-03-26T06:04:53;4.17;;;1.90;;
8060;SDS011;4073;42.626;25.386;2023-03-26T06:07:20;1.70;;;1.60;;
8060;SDS011;4073;42.626;25.386;2023-03-26T06:09:46;3.47;;;1.20;;
8060;SDS011;4073;42.626;25.386;2023-03-26T06:12:12;1.90;;;1.80;;
8060;SDS011;4073;42.626;25.386;2023-03-26T06:14:38;2.47;;;1.73;;
8060;SDS011;4073;42.626;25.386;2023-03-26T06:17:03;2.17;;;1.60;;
8060;SDS011;4073;42.626;25.386;2023-03-26T06:19:29;2.20;;;1.40;;
8060;SDS011;4073;42.626;25.386;2023-03-26T06:21:54;1.57;;;1.43;;
8060;SDS011;4073;42.626;25.386;2023-03-26T06:24:20;1.97;;;1.33;;
8060;SDS011;4073;42.626;25.386;2023-03-26T06:26:46;1.97;;;1.37;;
8060;SDS011;4073;42.626;25.386;2023-03-26T06:29:14;4.20;;;1.57;;
8060;SDS011;4073;42.626;25.386;2023-03-26T06:31:40;2.20;;;1.50;;
8060;SDS011;4073;42.626;25.386;2023-03-26T06:34:05;1.70;;;1.60;;
8060;SDS011;4073;42.626;25.386;2023-03-26T06:36:31;2.10;;;1.80;;
8060;SDS011;4073;42.626;25.386;2023-03-26T06:38:57;2.67;;;1.57;;
8060;SDS011;4073;42.626;25.386;2023-03-26T06:41:22;1.83;;;1.73;;
8060;SDS011;4073;42.626;25.386;2023-03-26T06:43:48;5.90;;;1.90;;
8060;SDS011;4073;42.626;25.386;2023-03-26T06:46:13;2.00;;;1.90;;
8060;SDS011;4073;42.626;25.386;2023-03-26T06:48:40;4.20;;;1.73;;
8060;SDS011;4073;42.626;25.386;2023-03-26T06:51:06;3.00;;;1.77;;
8060;SDS011;4073;42.626;25.386;2023-03-26T06:53:32;2.97;;;2.07;;
8060;SDS011;4073;42.626;25.386;2023-03-26T06:55:58;2.10;;;1.90;;
8060;SDS011;4073;42.626;25.386;2023-03-26T06:58:23;1.93;;;1.63;;
8060;SDS011;4073;42.626;25.386;2023-03-26T07:00:51;2.00;;;1.63;;
8060;SDS011;4073;42.626;25.386;2023-03-26T07:03:17;2.50;;;2.23;;
8060;SDS011;4073;42.626;25.386;2023-03-26T07:05:42;2.80;;;2.50;;
8060;SDS011;4073;42.626;25.386;2023-03-26T07:08:08;3.47;;;1.37;;
8060;SDS011;4073;42.626;25.386;2023-03-26T07:10:33;2.57;;;1.30;;
8060;SDS011;4073;42.626;25.386;2023-03-26T07:12:59;1.57;;;1.47;;
8060;SDS011;4073;42.626;25.386;2023-03-26T07:15:25;1.50;;;1.30;;
8060;SDS011;4073;42.626;25.386;2023-03-26T07:17:52;2.13;;;1.77;;
8060;SDS011;4073;42.626;25.386;2023-03-26T07:20:17;3.10;;;2.60;;
8060;SDS011;4073;42.626;25.386;2023-03-26T07:22:43;2.20;;;1.90;;
8060;SDS011;4073;42.626;25.386;2023-03-26T07:25:08;2.90;;;1.70;;
8060;SDS011;4073;42.626;25.386;2023-03-26T07:30:48;1.43;;;1.27;;
8060;SDS011;4073;42.626;25.386;2023-03-26T07:33:33;2.17;;;1.37;;
8060;SDS011;4073;42.626;25.386;2023-03-26T07:36:11;2.40;;;1.40;;
8060;SDS011;4073;42.626;25.386;2023-03-26T07:38:55;1.37;;;1.20;;
8060;SDS011;4073;42.626;25.386;2023-03-26T07:42:32;1.87;;;1.10;;
8060;SDS011;4073;42.626;25.386;2023-03-26T07:45:08;2.67;;;1.10;;
8060;SDS011;4073;42.626;25.386;2023-03-26T07:47:40;2.43;;;1.20;;
8060;SDS011;4073;42.626;25.386;2023-03-26T07:50:06;1.20;;;1.10;;
8060;SDS011;4073;42.626;25.386;2023-03-26T07:52:38;1.60;;;1.30;;
8060;SDS011;4073;42.626;25.386;2023-03-26T07:55:05;3.47;;;1.30;;
8060;SDS011;4073;42.626;25.386;2023-03-26T08:02:45;2.47;;;0.90;;
8060;SDS011;4073;42.626;25.386;2023-03-26T08:05:46;2.30;;;1.70;;
8060;SDS011;4073;42.626;25.386;2023-03-26T08:18:59;1.53;;;1.00;;
8060;SDS011;4073;42.626;25.386;2023-03-26T08:21:51;1.80;;;1.10;;
8060;SDS011;4073;42.626;25.386;2023-03-26T08:27:30;1.47;;;0.80;;
8060;SDS011;4073;42.626;25.386;2023-03-26T08:32:54;1.50;;;0.90;;
8060;SDS011;4073;42.626;25.386;2023-03-26T08:35:22;1.20;;;0.80;;
8060;SDS011;4073;42.626;25.386;2023-03-26T08:37:49;1.03;;;0.97;;
8060;SDS011;4073;42.626;25.386;2023-03-26T08:40:17;0.80;;;0.80;;
8060;SDS011;4073;42.626;25.386;2023-03-26T08:48:44;2.67;;;0.90;;
8060;SDS011;4073;42.626;25.386;2023-03-26T08:56:43;4.97;;;2.60;;
8060;SDS011;4073;42.626;25.386;2023-03-26T08:59:13;4.10;;;1.73;;
8060;SDS011;4073;42.626;25.386;2023-03-26T09:01:57;2.93;;;0.80;;
8060;SDS011;4073;42.626;25.386;2023-03-26T09:13:42;0.80;;;0.77;;
8060;SDS011;4073;42.626;25.386;2023-03-26T09:24:35;2.33;;;1.87;;
8060;SDS011;4073;42.626;25.386;2023-03-26T09:35:44;2.30;;;1.30;;
8060;SDS011;4073;42.626;25.386;2023-03-26T09:49:17;1.47;;;1.30;;
8060;SDS011;4073;42.626;25.386;2023-03-26T10:08:39;1.43;;;0.70;;
8060;SDS011;4073;42.626;25.386;2023-03-26T10:20:11;1.67;;;1.07;;
8060;SDS011;4073;42.626;25.386;2023-03-26T10:36:33;1.10;;;0.90;;
8060;SDS011;4073;42.626;25.386;2023-03-26T10:55:41;1.20;;;0.87;;
8060;SDS011;4073;42.626;25.386;2023-03-26T10:58:16;1.63;;;1.00;;
8060;SDS011;4073;42.626;25.386;2023-03-26T11:00:52;1.07;;;0.63;;
8060;SDS011;4073;42.626;25.386;2023-03-26T11:11:30;1.17;;;0.60;;
8060;SDS011;4073;42.626;25.386;2023-03-26T11:20:26;1.30;;;1.00;;
8060;SDS011;4073;42.626;25.386;2023-03-26T11:26:14;0.77;;;0.70;;
8060;SDS011;4073;42.626;25.386;2023-03-26T11:34:08;2.47;;;1.40;;
8060;SDS011;4073;42.626;25.386;2023-03-26T11:36:42;1.97;;;1.40;;
8060;SDS011;4073;42.626;25.386;2023-03-26T11:39:13;1.43;;;0.67;;
8060;SDS011;4073;42.626;25.386;2023-03-26T11:41:45;1.13;;;0.70;;
8060;SDS011;4073;42.626;25.386;2023-03-26T11:46:41;2.30;;;0.80;;
8060;SDS011;4073;42.626;25.386;2023-03-26T11:49:10;1.43;;;0.80;;
8060;SDS011;4073;42.626;25.386;2023-03-26T11:51:37;0.80;;;0.80;;
8060;SDS011;4073;42.626;25.386;2023-03-26T11:54:05;0.70;;;0.70;;
8060;SDS011;4073;42.626;25.386;2023-03-26T12:04:37;0.80;;;0.80;;
8060;SDS011;4073;42.626;25.386;2023-03-26T12:09:52;1.40;;;0.90;;
8060;SDS011;4073;42.626;25.386;2023-03-26T12:12:20;0.90;;;0.90;;
8060;SDS011;4073;42.626;25.386;2023-03-26T12:14:49;1.67;;;1.40;;
8060;SDS011;4073;42.626;25.386;2023-03-26T12:17:26;2.13;;;1.20;;
8060;SDS011;4073;42.626;25.386;2023-03-26T12:19:55;1.70;;;0.90;;
8060;SDS011;4073;42.626;25.386;2023-03-26T12:25:15;1.00;;;0.97;;
8060;SDS011;4073;42.626;25.386;2023-03-26T12:28:18;1.50;;;1.07;;
8060;SDS011;4073;42.626;25.386;2023-03-26T12:31:03;2.67;;;1.07;;
8060;SDS011;4073;42.626;25.386;2023-03-26T12:33:33;1.73;;;1.00;;
8060;SDS011;4073;42.626;25.386;2023-03-26T12:36:14;2.17;;;0.93;;
8060;SDS011;4073;42.626;25.386;2023-03-26T12:38:43;2.60;;;1.00;;
8060;SDS011;4073;42.626;25.386;2023-03-26T12:43:40;1.00;;;0.87;;
8060;SDS011;4073;42.626;25.386;2023-03-26T12:46:27;0.97;;;0.80;;
8060;SDS011;4073;42.626;25.386;2023-03-26T12:48:54;0.60;;;0.50;;
8060;SDS011;4073;42.626;25.386;2023-03-26T13:16:46;1.10;;;1.00;;
8060;SDS011;4073;42.626;25.386;2023-03-26T13:25:15;1.20;;;0.90;;
8060;SDS011;4073;42.626;25.386;2023-03-26T13:30:37;0.80;;;0.80;;
8060;SDS011;4073;42.626;25.386;2023-03-26T13:47:26;0.60;;;0.60;;
8060;SDS011;4073;42.626;25.386;2023-03-26T13:49:59;0.77;;;0.77;;
8060;SDS011;4073;42.626;25.386;2023-03-26T13:52:44;0.83;;;0.70;;
8060;SDS011;4073;42.626;25.386;2023-03-26T13:55:30;1.47;;;0.70;;
8060;SDS011;4073;42.626;25.386;2023-03-26T14:03:28;3.60;;;1.60;;
8060;SDS011;4073;42.626;25.386;2023-03-26T14:06:02;1.00;;;0.90;;
8060;SDS011;4073;42.626;25.386;2023-03-26T14:08:35;1.40;;;1.17;;
8060;SDS011;4073;42.626;25.386;2023-03-26T14:11:54;1.20;;;1.00;;
8060;SDS011;4073;42.626;25.386;2023-03-26T14:14:11;1.63;;;1.10;;
8060;SDS011;4073;42.626;25.386;2023-03-26T14:16:45;2.40;;;1.57;;
8060;SDS011;4073;42.626;25.386;2023-03-26T14:19:34;1.20;;;1.10;;
8060;SDS011;4073;42.626;25.386;2023-03-26T14:25:15;1.20;;;1.10;;
8060;SDS011;4073;42.626;25.386;2023-03-26T14:33:24;0.87;;;0.80;;
8060;SDS011;4073;42.626;25.386;2023-03-26T14:36:36;1.30;;;1.10;;
8060;SDS011;4073;42.626;25.386;2023-03-26T14:42:18;2.93;;;1.10;;
8060;SDS011;4073;42.626;25.386;2023-03-26T14:48:03;1.77;;;1.07;;
8060;SDS011;4073;42.626;25.386;2023-03-26T14:51:13;2.43;;;1.03;;
8060;SDS011;4073;42.626;25.386;2023-03-26T14:53:43;3.00;;;0.80;;
8060;SDS011;4073;42.626;25.386;2023-03-26T14:57:03;2.03;;;1.20;;
8060;SDS011;4073;42.626;25.386;2023-03-26T15:16:06;1.40;;;0.90;;
8060;SDS011;4073;42.626;25.386;2023-03-26T15:52:37;2.10;;;1.40;;
8060;SDS011;4073;42.626;25.386;2023-03-26T15:57:46;1.93;;;1.17;;
8060;SDS011;4073;42.626;25.386;2023-03-26T16:00:30;1.50;;;1.10;;
8060;SDS011;4073;42.626;25.386;2023-03-26T16:03:08;1.73;;;0.90;;
8060;SDS011;4073;42.626;25.386;2023-03-26T16:11:04;1.10;;;1.00;;
8060;SDS011;4073;42.626;25.386;2023-03-26T16:31:48;2.37;;;2.17;;
8060;SDS011;4073;42.626;25.386;2023-03-26T16:51:12;4.47;;;2.67;;
8060;SDS011;4073;42.626;25.386;2023-03-26T16:54:00;3.70;;;3.13;;
8060;SDS011;4073;42.626;25.386;2023-03-26T16:56:51;2.70;;;2.50;;
8060;SDS011;4073;42.626;25.386;2023-03-26T17:02:25;6.47;;;4.70;;
8060;SDS011;4073;42.626;25.386;2023-03-26T17:05:23;4.03;;;2.90;;
8060;SDS011;4073;42.626;25.386;2023-03-26T17:08:13;4.90;;;2.93;;
8060;SDS011;4073;42.626;25.386;2023-03-26T17:16:11;4.37;;;3.43;;
8060;SDS011;4073;42.626;25.386;2023-03-26T17:19:00;7.17;;;5.33;;
8060;SDS011;4073;42.626;25.386;2023-03-26T17:24:55;4.67;;;3.00;;
8060;SDS011;4073;42.626;25.386;2023-03-26T17:33:11;3.00;;;2.07;;
8060;SDS011;4073;42.626;25.386;2023-03-26T17:35:47;2.33;;;2.13;;
8060;SDS011;4073;42.626;25.386;2023-03-26T17:40:45;5.13;;;3.67;;
8060;SDS011;4073;42.626;25.386;2023-03-26T17:49:02;5.50;;;3.13;;
8060;SDS011;4073;42.626;25.386;2023-03-26T17:54:26;4.27;;;3.40;;
8060;SDS011;4073;42.626;25.386;2023-03-26T17:56:59;3.37;;;3.07;;
8060;SDS011;4073;42.626;25.386;2023-03-26T17:59:49;5.83;;;3.10;;
8060;SDS011;4073;42.626;25.386;2023-03-26T18:02:21;3.87;;;2.70;;
8060;SDS011;4073;42.626;25.386;2023-03-26T18:04:57;3.63;;;2.77;;
8060;SDS011;4073;42.626;25.386;2023-03-26T18:07:39;2.80;;;2.57;;
8060;SDS011;4073;42.626;25.386;2023-03-26T18:20:58;2.67;;;2.27;;
8060;SDS011;4073;42.626;25.386;2023-03-26T18:23:36;3.00;;;2.80;;
8060;SDS011;4073;42.626;25.386;2023-03-26T18:26:11;3.20;;;2.70;;
8060;SDS011;4073;42.626;25.386;2023-03-26T18:29:23;3.43;;;2.50;;
8060;SDS011;4073;42.626;25.386;2023-03-26T18:31:39;5.67;;;3.50;;
8060;SDS011;4073;42.626;25.386;2023-03-26T18:34:11;6.20;;;4.90;;
8060;SDS011;4073;42.626;25.386;2023-03-26T18:36:42;7.47;;;5.63;;
8060;SDS011;4073;42.626;25.386;2023-03-26T18:39:13;7.03;;;5.60;;
8060;SDS011;4073;42.626;25.386;2023-03-26T18:41:38;8.60;;;6.43;;
8060;SDS011;4073;42.626;25.386;2023-03-26T18:44:10;7.67;;;6.47;;
8060;SDS011;4073;42.626;25.386;2023-03-26T18:46:38;9.70;;;6.60;;
8060;SDS011;4073;42.626;25.386;2023-03-26T18:49:05;13.63;;;8.60;;
8060;SDS011;4073;42.626;25.386;2023-03-26T18:51:31;9.87;;;4.97;;
8060;SDS011;4073;42.626;25.386;2023-03-26T18:53:57;5.97;;;4.53;;
8060;SDS011;4073;42.626;25.386;2023-03-26T18:56:36;5.73;;;4.43;;
8060;SDS011;4073;42.626;25.386;2023-03-26T18:59:05;9.47;;;6.20;;
8060;SDS011;4073;42.626;25.386;2023-03-26T19:01:43;6.07;;;4.77;;
8060;SDS011;4073;42.626;25.386;2023-03-26T19:04:12;7.10;;;6.40;;
8060;SDS011;4073;42.626;25.386;2023-03-26T19:06:39;8.37;;;6.37;;
8060;SDS011;4073;42.626;25.386;2023-03-26T19:09:08;17.60;;;9.33;;
8060;SDS011;4073;42.626;25.386;2023-03-26T19:11:38;24.53;;;15.17;;
8060;SDS011;4073;42.626;25.386;2023-03-26T19:14:06;13.53;;;9.77;;
8060;SDS011;4073;42.626;25.386;2023-03-26T19:16:38;13.40;;;8.97;;
8060;SDS011;4073;42.626;25.386;2023-03-26T19:19:07;10.37;;;7.70;;
8060;SDS011;4073;42.626;25.386;2023-03-26T19:21:40;13.53;;;7.80;;
8060;SDS011;4073;42.626;25.386;2023-03-26T19:24:06;11.70;;;8.93;;
8060;SDS011;4073;42.626;25.386;2023-03-26T19:26:32;17.10;;;10.57;;
8060;SDS011;4073;42.626;25.386;2023-03-26T19:28:58;7.57;;;6.40;;
8060;SDS011;4073;42.626;25.386;2023-03-26T19:31:35;8.10;;;5.83;;
8060;SDS011;4073;42.626;25.386;2023-03-26T19:34:12;9.23;;;6.13;;
8060;SDS011;4073;42.626;25.386;2023-03-26T19:36:55;10.13;;;6.63;;
8060;SDS011;4073;42.626;25.386;2023-03-26T19:42:12;3.27;;;2.97;;
8060;SDS011;4073;42.626;25.386;2023-03-26T19:44:40;3.27;;;2.73;;
8060;SDS011;4073;42.626;25.386;2023-03-26T19:47:12;6.03;;;4.30;;
8060;SDS011;4073;42.626;25.386;2023-03-26T19:57:18;8.97;;;6.33;;
8060;SDS011;4073;42.626;25.386;2023-03-26T19:59:44;8.60;;;7.03;;
8060;SDS011;4073;42.626;25.386;2023-03-26T20:02:10;11.57;;;7.53;;
8060;SDS011;4073;42.626;25.386;2023-03-26T20:04:37;9.80;;;5.83;;
8060;SDS011;4073;42.626;25.386;2023-03-26T20:07:09;7.00;;;5.60;;
8060;SDS011;4073;42.626;25.386;2023-03-26T20:09:39;8.10;;;4.87;;
8060;SDS011;4073;42.626;25.386;2023-03-26T20:12:08;8.83;;;4.97;;
8060;SDS011;4073;42.626;25.386;2023-03-26T20:14:33;7.60;;;5.77;;
8060;SDS011;4073;42.626;25.386;2023-03-26T20:17:00;7.97;;;5.90;;
8060;SDS011;4073;42.626;25.386;2023-03-26T20:19:25;8.80;;;5.17;;
8060;SDS011;4073;42.626;25.386;2023-03-26T20:21:51;6.70;;;5.13;;
8060;SDS011;4073;42.626;25.386;2023-03-26T20:24:17;7.73;;;5.93;;
8060;SDS011;4073;42.626;25.386;2023-03-26T20:26:44;8.13;;;5.10;;
8060;SDS011;4073;42.626;25.386;2023-03-26T20:29:10;5.87;;;4.20;;
8060;SDS011;4073;42.626;25.386;2023-03-26T20:31:37;5.97;;;4.27;;
8060;SDS011;4073;42.626;25.386;2023-03-26T20:34:07;6.17;;;3.90;;
8060;SDS011;4073;42.626;25.386;2023-03-26T20:36:39;3.97;;;3.30;;
8060;SDS011;4073;42.626;25.386;2023-03-26T20:39:05;6.37;;;3.33;;
8060;SDS011;4073;42.626;25.386;2023-03-26T20:41:30;4.63;;;2.50;;
8060;SDS011;4073;42.626;25.386;2023-03-26T20:43:56;4.03;;;2.83;;
8060;SDS011;4073;42.626;25.386;2023-03-26T20:46:22;5.53;;;4.40;;
8060;SDS011;4073;42.626;25.386;2023-03-26T20:48:50;10.43;;;7.37;;
8060;SDS011;4073;42.626;25.386;2023-03-26T20:54:02;6.83;;;4.00;;
8060;SDS011;4073;42.626;25.386;2023-03-26T20:56:30;6.03;;;3.87;;
8060;SDS011;4073;42.626;25.386;2023-03-26T20:58:57;5.20;;;3.30;;
8060;SDS011;4073;42.626;25.386;2023-03-26T21:01:23;5.50;;;2.43;;
8060;SDS011;4073;42.626;25.386;2023-03-26T21:03:49;3.53;;;2.40;;
8060;SDS011;4073;42.626;25.386;2023-03-26T21:06:14;4.37;;;3.00;;
8060;SDS011;4073;42.626;25.386;2023-03-26T21:08:40;5.60;;;3.13;;
8060;SDS011;4073;42.626;25.386;2023-03-26T21:11:28;3.87;;;2.77;;
8060;SDS011;4073;42.626;25.386;2023-03-26T21:16:33;3.77;;;3.10;;
8060;SDS011;4073;42.626;25.386;2023-03-26T21:18:59;3.53;;;2.50;;
8060;SDS011;4073;42.626;25.386;2023-03-26T21:24:00;42.27;;;27.63;;
8060;SDS011;4073;42.626;25.386;2023-03-26T21:29:28;4.83;;;3.80;;
8060;SDS011;4073;42.626;25.386;2023-03-26T21:31:53;5.27;;;2.63;;
8060;SDS011;4073;42.626;25.386;2023-03-26T21:34:19;3.97;;;3.00;;
8060;SDS011;4073;42.626;25.386;2023-03-26T21:36:46;5.73;;;3.07;;
8060;SDS011;4073;42.626;25.386;2023-03-26T21:39:12;5.87;;;3.87;;
8060;SDS011;4073;42.626;25.386;2023-03-26T21:41:40;8.10;;;3.43;;
8060;SDS011;4073;42.626;25.386;2023-03-26T21:44:09;7.43;;;5.43;;
8060;SDS011;4073;42.626;25.386;2023-03-26T21:46:35;5.17;;;3.87;;
8060;SDS011;4073;42.626;25.386;2023-03-26T21:49:01;6.27;;;3.77;;
8060;SDS011;4073;42.626;25.386;2023-03-26T21:51:27;3.83;;;3.30;;
8060;SDS011;4073;42.626;25.386;2023-03-26T21:53:53;7.27;;;3.70;;
8060;SDS011;4073;42.626;25.386;2023-03-26T22:01:46;5.40;;;3.53;;
8060;SDS011;4073;42.626;25.386;2023-03-26T22:04:27;3.17;;;2.87;;
8060;SDS011;4073;42.626;25.386;2023-03-26T22:07:24;4.43;;;3.03;;
8060;SDS011;4073;42.626;25.386;2023-03-26T22:09:56;3.17;;;2.40;;
8060;SDS011;4073;42.626;25.386;2023-03-26T22:12:22;2.70;;;2.10;;
8060;SDS011;4073;42.626;25.386;2023-03-26T22:14:49;5.00;;;2.67;;
8060;SDS011;4073;42.626;25.386;2023-03-26T22:17:16;5.30;;;3.50;;
8060;SDS011;4073;42.626;25.386;2023-03-26T22:19:42;4.80;;;3.70;;
8060;SDS011;4073;42.626;25.386;2023-03-26T22:22:07;4.50;;;3.90;;
8060;SDS011;4073;42.626;25.386;2023-03-26T22:24:34;4.80;;;3.83;;